createdAt,value
2022-09-21T21:59:33.009Z,1023.76
2022-09-21T22:00:32.781Z,1023.75
2022-09-21T22:01:32.867Z,1023.74
2022-09-21T22:02:32.807Z,1023.71
2022-09-21T22:03:41.064Z,1023.72
2022-09-21T22:04:34.920Z,1023.72
2022-09-21T22:05:32.806Z,1023.74
2022-09-21T22:06:32.852Z,1023.72
2022-09-21T22:07:32.821Z,1023.72
2022-09-21T22:08:32.769Z,1023.75
2022-09-21T22:09:32.796Z,1023.77
2022-09-21T22:10:32.699Z,1023.74
2022-09-21T22:11:32.696Z,1023.69
2022-09-21T22:12:32.700Z,1023.70
2022-09-21T22:13:35.002Z,1023.71
2022-09-21T22:14:32.671Z,1023.71
2022-09-21T22:15:32.658Z,1023.69
2022-09-21T22:16:32.680Z,1023.68
2022-09-21T22:17:32.645Z,1023.73
2022-09-21T22:18:32.628Z,1023.71
2022-09-21T22:19:32.614Z,1023.68
2022-09-21T22:20:32.585Z,1023.71
2022-09-21T22:21:32.605Z,1023.70
2022-09-21T22:22:33.918Z,1023.66
2022-09-21T22:23:32.576Z,1023.63
2022-09-21T22:24:32.790Z,1023.64
2022-09-21T22:25:32.510Z,1023.59
2022-09-21T22:26:32.500Z,1023.63
2022-09-21T22:27:32.467Z,1023.65
2022-09-21T22:28:32.566Z,1023.64
2022-09-21T22:29:32.493Z,1023.64
2022-09-21T22:30:32.539Z,1023.63
2022-09-21T22:31:32.491Z,1023.62
2022-09-21T22:32:32.501Z,1023.61
2022-09-21T22:33:33.329Z,1023.62
2022-09-21T22:34:32.452Z,1023.63
2022-09-21T22:35:32.407Z,1023.65
2022-09-21T22:36:32.426Z,1023.59
2022-09-21T22:37:32.461Z,1023.61
2022-09-21T22:38:32.366Z,1023.62
2022-09-21T22:39:32.367Z,1023.63
2022-09-21T22:40:32.463Z,1023.61
2022-09-21T22:41:32.391Z,1023.63
2022-09-21T22:42:32.372Z,1023.59
2022-09-21T22:43:32.357Z,1023.64
2022-09-21T22:44:32.330Z,1023.59
2022-09-21T22:45:32.356Z,1023.58
2022-09-21T22:46:32.298Z,1023.58
2022-09-21T22:47:32.259Z,1023.58
2022-09-21T22:48:32.281Z,1023.57
2022-09-21T22:49:32.245Z,1023.58
2022-09-21T22:50:32.249Z,1023.57
2022-09-21T22:51:32.232Z,1023.58
2022-09-21T22:52:32.240Z,1023.58
2022-09-21T22:53:32.184Z,1023.59
2022-09-21T22:54:32.177Z,1023.56
2022-09-21T22:55:32.140Z,1023.57
2022-09-21T22:56:32.120Z,1023.59
2022-09-21T22:57:33.864Z,1023.56
2022-09-21T22:58:32.130Z,1023.61
2022-09-21T22:59:32.092Z,1023.57
2022-09-21T23:00:32.167Z,1023.60
2022-09-21T23:01:32.185Z,1023.59
2022-09-21T23:02:32.085Z,1023.57
2022-09-21T23:03:32.120Z,1023.55
2022-09-21T23:04:32.098Z,1023.55
2022-09-21T23:05:32.078Z,1023.57
2022-09-21T23:06:32.069Z,1023.59
2022-09-21T23:07:32.028Z,1023.57
2022-09-21T23:08:31.992Z,1023.57
2022-09-21T23:09:32.042Z,1023.58
2022-09-21T23:10:32.037Z,1023.57
2022-09-21T23:11:31.943Z,1023.56
2022-09-21T23:12:32.006Z,1023.59
2022-09-21T23:13:31.928Z,1023.59
2022-09-21T23:14:32.025Z,1023.59
2022-09-21T23:15:31.984Z,1023.60
2022-09-21T23:16:31.985Z,1023.59
2022-09-21T23:17:31.913Z,1023.58
2022-09-21T23:18:31.928Z,1023.60
2022-09-21T23:19:31.909Z,1023.56
2022-09-21T23:20:31.869Z,1023.54
2022-09-21T23:21:31.872Z,1023.58
2022-09-21T23:22:31.827Z,1023.56
2022-09-21T23:23:31.807Z,1023.55
2022-09-21T23:24:31.893Z,1023.54
2022-09-21T23:25:31.778Z,1023.55
2022-09-21T23:26:31.757Z,1023.55
2022-09-21T23:27:31.836Z,1023.54
2022-09-21T23:28:31.816Z,1023.55
2022-09-21T23:29:31.781Z,1023.58
2022-09-21T23:30:31.795Z,1023.54
2022-09-21T23:31:31.764Z,1023.56
2022-09-21T23:32:33.912Z,1023.56
2022-09-21T23:33:31.699Z,1023.52
2022-09-21T23:34:31.695Z,1023.52
2022-09-21T23:35:31.815Z,1023.50
2022-09-21T23:36:31.660Z,1023.49
2022-09-21T23:37:31.630Z,1023.49
2022-09-21T23:38:31.694Z,1023.54
2022-09-21T23:39:31.708Z,1023.50
2022-09-21T23:40:31.667Z,1023.51
2022-09-21T23:41:31.663Z,1023.48
2022-09-21T23:42:31.580Z,1023.47
2022-09-21T23:43:31.570Z,1023.48
2022-09-21T23:44:31.557Z,1023.47
2022-09-21T23:45:31.593Z,1023.46
2022-09-21T23:46:31.661Z,1023.45
2022-09-21T23:47:31.556Z,1023.52
2022-09-21T23:48:31.482Z,1023.48
2022-09-21T23:49:31.522Z,1023.49
2022-09-21T23:50:31.484Z,1023.45
2022-09-21T23:51:31.497Z,1023.49
2022-09-21T23:52:40.198Z,1023.49
2022-09-21T23:53:31.426Z,1023.48
2022-09-21T23:54:31.390Z,1023.48
2022-09-21T23:55:31.386Z,1023.49
2022-09-21T23:56:31.384Z,1023.46
2022-09-21T23:57:31.368Z,1023.48
2022-09-21T23:58:34.392Z,1023.46
2022-09-21T23:59:31.388Z,1023.53
